sensor_id;sensor_type;location;lat;lon;timestamp;pressure;altitude;pressure_sealevel;temperature;humidity
76753;BME280;65687;51.308;16.916;2023-02-15T00:03:06;101382.96;;;-0.47;82.18
76753;BME280;65687;51.308;16.916;2023-02-15T00:08:07;101373.65;;;-0.48;81.62
76753;BME280;65687;51.308;16.916;2023-02-15T00:13:10;101368.87;;;-0.43;81.33
76753;BME280;65687;51.308;16.916;2023-02-15T00:18:12;101366.44;;;-0.39;81.64
76753;BME280;65687;51.308;16.916;2023-02-15T00:23:13;101352.45;;;-0.47;81.61
76753;BME280;65687;51.308;16.916;2023-02-15T00:28:15;101346.91;;;-0.56;81.95
76753;BME280;65687;51.308;16.916;2023-02-15T00:33:17;101347.29;;;-0.55;82.01
76753;BME280;65687;51.308;16.916;2023-02-15T00:38:18;101337.60;;;-0.44;82.45
76753;BME280;65687;51.308;16.916;2023-02-15T00:43:20;101337.80;;;-0.31;81.81
76753;BME280;65687;51.308;16.916;2023-02-15T00:48:22;101339.80;;;-0.19;81.64
76753;BME280;65687;51.308;16.916;2023-02-15T00:53:26;101345.76;;;-0.23;81.34
76753;BME280;65687;51.308;16.916;2023-02-15T00:58:28;101343.06;;;-0.32;81.91
76753;BME280;65687;51.308;16.916;2023-02-15T01:03:29;101340.03;;;-0.38;81.65
76753;BME280;65687;51.308;16.916;2023-02-15T01:08:31;101335.73;;;-0.35;81.57
76753;BME280;65687;51.308;16.916;2023-02-15T01:13:34;101335.73;;;-0.35;81.98
76753;BME280;65687;51.308;16.916;2023-02-15T01:18:35;101329.80;;;-0.45;81.65
76753;BME280;65687;51.308;16.916;2023-02-15T01:23:37;101319.64;;;-0.48;81.96
76753;BME280;65687;51.308;16.916;2023-02-15T01:28:39;101321.55;;;-0.40;81.91
76753;BME280;65687;51.308;16.916;2023-02-15T01:33:40;101316.38;;;-0.48;81.47
76753;BME280;65687;51.308;16.916;2023-02-15T01:38:42;101311.77;;;-0.58;81.43
76753;BME280;65687;51.308;16.916;2023-02-15T01:43:57;101304.73;;;-0.63;82.23
76753;BME280;65687;51.308;16.916;2023-02-15T01:49:07;101298.02;;;-0.58;81.84
76753;BME280;65687;51.308;16.916;2023-02-15T01:54:24;101291.41;;;-0.62;81.87
76753;BME280;65687;51.308;16.916;2023-02-15T01:59:27;101288.41;;;-0.74;81.87
76753;BME280;65687;51.308;16.916;2023-02-15T02:04:49;101280.23;;;-0.86;82.09
76753;BME280;65687;51.308;16.916;2023-02-15T02:09:51;101277.27;;;-0.95;82.51
76753;BME280;65687;51.308;16.916;2023-02-15T02:14:54;101275.75;;;-0.91;82.72
76753;BME280;65687;51.308;16.916;2023-02-15T02:41:55;101234.69;;;-0.97;83.01
76753;BME280;65687;51.308;16.916;2023-02-15T02:52:48;101231.21;;;-0.94;82.59
76753;BME280;65687;51.308;16.916;2023-02-15T02:57:31;101228.80;;;-0.91;82.54
76753;BME280;65687;51.308;16.916;2023-02-15T03:02:41;101232.00;;;-0.96;82.54
76753;BME280;65687;51.308;16.916;2023-02-15T03:07:48;101226.94;;;-1.15;82.68
76753;BME280;65687;51.308;16.916;2023-02-15T03:12:52;101228.52;;;-1.27;83.14
76753;BME280;65687;51.308;16.916;2023-02-15T03:17:57;101232.89;;;-1.21;83.31
76753;BME280;65687;51.308;16.916;2023-02-15T03:23:12;101237.84;;;-1.16;82.94
76753;BME280;65687;51.308;16.916;2023-02-15T03:28:19;101232.29;;;-1.28;83.05
76753;BME280;65687;51.308;16.916;2023-02-15T03:33:26;101226.17;;;-1.46;83.50
76753;BME280;65687;51.308;16.916;2023-02-15T03:38:36;101217.36;;;-1.52;83.78
76753;BME280;65687;51.308;16.916;2023-02-15T03:43:59;101219.45;;;-1.43;83.78
76753;BME280;65687;51.308;16.916;2023-02-15T03:49:10;101217.70;;;-1.31;83.82
76753;BME280;65687;51.308;16.916;2023-02-15T03:59:40;101213.35;;;-1.34;83.61
76753;BME280;65687;51.308;16.916;2023-02-15T04:05:00;101206.23;;;-1.51;83.64
76753;BME280;65687;51.308;16.916;2023-02-15T04:10:02;101200.11;;;-1.59;83.88
76753;BME280;65687;51.308;16.916;2023-02-15T04:15:22;101190.58;;;-1.56;84.16
76753;BME280;65687;51.308;16.916;2023-02-15T04:20:44;101190.47;;;-1.39;84.38
76753;BME280;65687;51.308;16.916;2023-02-15T04:26:05;101189.10;;;-1.24;84.44
76753;BME280;65687;51.308;16.916;2023-02-15T04:31:07;101181.39;;;-1.09;84.84
76753;BME280;65687;51.308;16.916;2023-02-15T04:36:09;101183.55;;;-0.92;84.79
76753;BME280;65687;51.308;16.916;2023-02-15T04:41:11;101177.47;;;-0.81;84.14
76753;BME280;65687;51.308;16.916;2023-02-15T04:46:14;101175.33;;;-0.68;84.23
76753;BME280;65687;51.308;16.916;2023-02-15T04:51:15;101169.55;;;-0.68;84.20
76753;BME280;65687;51.308;16.916;2023-02-15T04:56:17;101161.61;;;-0.65;83.89
76753;BME280;65687;51.308;16.916;2023-02-15T05:01:18;101165.21;;;-0.66;84.03
76753;BME280;65687;51.308;16.916;2023-02-15T05:06:20;101160.34;;;-0.64;84.08
76753;BME280;65687;51.308;16.916;2023-02-15T05:11:22;101163.33;;;-0.55;84.01
76753;BME280;65687;51.308;16.916;2023-02-15T05:16:24;101164.27;;;-0.46;83.65
76753;BME280;65687;51.308;16.916;2023-02-15T05:21:28;101160.19;;;-0.43;83.60
76753;BME280;65687;51.308;16.916;2023-02-15T05:26:29;101159.23;;;-0.45;83.50
76753;BME280;65687;51.308;16.916;2023-02-15T05:31:49;101156.55;;;-0.51;83.68
76753;BME280;65687;51.308;16.916;2023-02-15T05:36:51;101158.73;;;-0.56;83.66
76753;BME280;65687;51.308;16.916;2023-02-15T05:41:52;101155.71;;;-0.57;83.56
76753;BME280;65687;51.308;16.916;2023-02-15T05:46:54;101148.05;;;-0.56;83.49
76753;BME280;65687;51.308;16.916;2023-02-15T05:51:56;101145.27;;;-0.58;83.15
76753;BME280;65687;51.308;16.916;2023-02-15T05:56:58;101139.78;;;-0.62;83.81
76753;BME280;65687;51.308;16.916;2023-02-15T06:01:59;101142.89;;;-0.66;83.48
76753;BME280;65687;51.308;16.916;2023-02-15T06:07:01;101143.85;;;-0.66;83.23
76753;BME280;65687;51.308;16.916;2023-02-15T06:12:03;101145.18;;;-0.62;83.18
76753;BME280;65687;51.308;16.916;2023-02-15T06:17:04;101149.89;;;-0.64;83.54
76753;BME280;65687;51.308;16.916;2023-02-15T06:22:06;101152.22;;;-0.70;83.57
76753;BME280;65687;51.308;16.916;2023-02-15T06:27:11;101148.17;;;-0.75;83.37
76753;BME280;65687;51.308;16.916;2023-02-15T06:32:12;101148.86;;;-0.72;83.54
76753;BME280;65687;51.308;16.916;2023-02-15T06:37:14;101154.00;;;-0.69;83.09
76753;BME280;65687;51.308;16.916;2023-02-15T06:42:16;101154.89;;;-0.70;83.52
76753;BME280;65687;51.308;16.916;2023-02-15T06:47:19;101151.48;;;-0.75;83.38
76753;BME280;65687;51.308;16.916;2023-02-15T06:52:24;101161.25;;;-0.79;83.30
76753;BME280;65687;51.308;16.916;2023-02-15T06:57:25;101163.41;;;-0.82;83.44
76753;BME280;65687;51.308;16.916;2023-02-15T07:02:27;101162.61;;;-0.75;83.49
76753;BME280;65687;51.308;16.916;2023-02-15T07:07:29;101155.90;;;-0.67;83.21
76753;BME280;65687;51.308;16.916;2023-02-15T07:12:30;101149.49;;;-0.58;83.10
76753;BME280;65687;51.308;16.916;2023-02-15T07:17:45;101142.10;;;-0.53;83.26
76753;BME280;65687;51.308;16.916;2023-02-15T07:22:48;101141.98;;;-0.45;82.93
76753;BME280;65687;51.308;16.916;2023-02-15T07:28:02;101136.71;;;-0.32;82.77
76753;BME280;65687;51.308;16.916;2023-02-15T07:33:04;101132.77;;;-0.23;82.56
76753;BME280;65687;51.308;16.916;2023-02-15T07:38:33;101132.89;;;-0.16;82.40
76753;BME280;65687;51.308;16.916;2023-02-15T07:43:37;101131.73;;;-0.09;82.34
76753;BME280;65687;51.308;16.916;2023-02-15T07:48:40;101126.94;;;-0.03;82.21
76753;BME280;65687;51.308;16.916;2023-02-15T07:53:42;101122.57;;;0.06;82.05
76753;BME280;65687;51.308;16.916;2023-02-15T07:58:44;101114.85;;;0.23;81.47
76753;BME280;65687;51.308;16.916;2023-02-15T08:03:55;101107.02;;;0.44;81.84
76753;BME280;65687;51.308;16.916;2023-02-15T08:08:57;101098.92;;;0.61;81.57
76753;BME280;65687;51.308;16.916;2023-02-15T08:19:26;101090.43;;;0.88;81.59
76753;BME280;65687;51.308;16.916;2023-02-15T08:24:31;101086.02;;;1.04;81.11
76753;BME280;65687;51.308;16.916;2023-02-15T08:29:35;101084.65;;;1.24;81.04
76753;BME280;65687;51.308;16.916;2023-02-15T08:34:39;101084.69;;;1.42;80.71
76753;BME280;65687;51.308;16.916;2023-02-15T08:39:41;101083.13;;;1.55;80.47
76753;BME280;65687;51.308;16.916;2023-02-15T08:44:44;101081.92;;;1.61;80.01
76753;BME280;65687;51.308;16.916;2023-02-15T08:49:46;101078.88;;;1.69;79.99
76753;BME280;65687;51.308;16.916;2023-02-15T08:54:48;101072.88;;;1.86;79.60
76753;BME280;65687;51.308;16.916;2023-02-15T08:59:49;101072.04;;;1.98;78.91
76753;BME280;65687;51.308;16.916;2023-02-15T09:04:52;101070.79;;;1.99;78.30
76753;BME280;65687;51.308;16.916;2023-02-15T09:09:54;101068.22;;;2.05;78.12
76753;BME280;65687;51.308;16.916;2023-02-15T09:14:55;101066.02;;;2.17;78.03
76753;BME280;65687;51.308;16.916;2023-02-15T09:19:57;101058.65;;;2.20;77.52
76753;BME280;65687;51.308;16.916;2023-02-15T09:24:59;101058.80;;;2.20;77.97
76753;BME280;65687;51.308;16.916;2023-02-15T09:30:00;101052.73;;;2.22;77.54
76753;BME280;65687;51.308;16.916;2023-02-15T09:35:02;101053.94;;;2.23;77.77
76753;BME280;65687;51.308;16.916;2023-02-15T09:40:04;101054.19;;;2.29;77.70
76753;BME280;65687;51.308;16.916;2023-02-15T09:45:38;101047.69;;;2.33;77.15
76753;BME280;65687;51.308;16.916;2023-02-15T09:56:11;101047.16;;;2.56;76.62
76753;BME280;65687;51.308;16.916;2023-02-15T10:27:36;101006.48;;;4.37;71.63
76753;BME280;65687;51.308;16.916;2023-02-15T10:32:57;100995.73;;;4.64;70.49
76753;BME280;65687;51.308;16.916;2023-02-15T10:59:42;100969.00;;;6.02;67.51
76753;BME280;65687;51.308;16.916;2023-02-15T11:04:54;100958.46;;;6.41;66.50
76753;BME280;65687;51.308;16.916;2023-02-15T11:10:22;100956.07;;;6.52;64.95
76753;BME280;65687;51.308;16.916;2023-02-15T11:15:41;100952.45;;;6.44;64.80
76753;BME280;65687;51.308;16.916;2023-02-15T11:20:55;100944.37;;;6.80;64.27
76753;BME280;65687;51.308;16.916;2023-02-15T11:26:00;100938.36;;;7.08;63.09
76753;BME280;65687;51.308;16.916;2023-02-15T11:31:13;100931.59;;;7.29;63.15
76753;BME280;65687;51.308;16.916;2023-02-15T11:36:21;100923.73;;;7.45;62.57
76753;BME280;65687;51.308;16.916;2023-02-15T11:41:28;100918.57;;;7.63;61.66
76753;BME280;65687;51.308;16.916;2023-02-15T11:46:31;100911.48;;;7.68;60.38
76753;BME280;65687;51.308;16.916;2023-02-15T11:51:34;100907.41;;;7.77;61.00
76753;BME280;65687;51.308;16.916;2023-02-15T11:56:36;100898.20;;;7.81;60.22
76753;BME280;65687;51.308;16.916;2023-02-15T12:01:42;100892.46;;;7.94;60.77
76753;BME280;65687;51.308;16.916;2023-02-15T12:07:15;100886.09;;;7.97;60.63
76753;BME280;65687;51.308;16.916;2023-02-15T12:12:25;100880.98;;;8.04;60.04
76753;BME280;65687;51.308;16.916;2023-02-15T12:17:30;100875.27;;;8.15;59.88
76753;BME280;65687;51.308;16.916;2023-02-15T12:22:36;100875.16;;;8.08;59.44
76753;BME280;65687;51.308;16.916;2023-02-15T12:27:42;100871.08;;;8.04;59.75
76753;BME280;65687;51.308;16.916;2023-02-15T12:32:51;100868.74;;;7.99;59.95
76753;BME280;65687;51.308;16.916;2023-02-15T12:38:41;100862.03;;;7.99;59.87
76753;BME280;65687;51.308;16.916;2023-02-15T12:43:31;100858.48;;;7.86;58.72
76753;BME280;65687;51.308;16.916;2023-02-15T12:48:33;100853.92;;;7.67;58.73
76753;BME280;65687;51.308;16.916;2023-02-15T12:53:35;100846.98;;;7.54;58.82
76753;BME280;65687;51.308;16.916;2023-02-15T12:58:41;100846.82;;;7.42;59.36
76753;BME280;65687;51.308;16.916;2023-02-15T13:03:59;100847.72;;;7.32;59.56
76753;BME280;65687;51.308;16.916;2023-02-15T13:09:15;100844.23;;;7.23;59.17
76753;BME280;65687;51.308;16.916;2023-02-15T13:14:21;100834.35;;;7.16;59.96
76753;BME280;65687;51.308;16.916;2023-02-15T13:24:41;100831.83;;;7.04;60.22
76753;BME280;65687;51.308;16.916;2023-02-15T13:29:53;100826.54;;;7.03;60.01
76753;BME280;65687;51.308;16.916;2023-02-15T13:35:00;100824.96;;;7.03;59.74
76753;BME280;65687;51.308;16.916;2023-02-15T13:57:36;100796.85;;;6.97;59.71
76753;BME280;65687;51.308;16.916;2023-02-15T14:18:39;100797.70;;;6.63;61.97
76753;BME280;65687;51.308;16.916;2023-02-15T14:34:42;100787.81;;;6.58;61.91
76753;BME280;65687;51.308;16.916;2023-02-15T14:40:00;100785.33;;;6.58;62.26
76753;BME280;65687;51.308;16.916;2023-02-15T14:45:35;100783.33;;;6.59;62.43
76753;BME280;65687;51.308;16.916;2023-02-15T14:50:46;100784.79;;;6.56;62.46
76753;BME280;65687;51.308;16.916;2023-02-15T14:56:25;100780.85;;;6.57;62.77
76753;BME280;65687;51.308;16.916;2023-02-15T15:01:33;100781.46;;;6.58;63.13
76753;BME280;65687;51.308;16.916;2023-02-15T15:06:39;100783.88;;;6.57;63.32
76753;BME280;65687;51.308;16.916;2023-02-15T15:11:46;100777.70;;;6.56;63.29
76753;BME280;65687;51.308;16.916;2023-02-15T15:16:49;100779.02;;;6.56;62.96
76753;BME280;65687;51.308;16.916;2023-02-15T15:21:52;100777.39;;;6.53;63.08
76753;BME280;65687;51.308;16.916;2023-02-15T15:32:19;100768.35;;;6.23;64.10
76753;BME280;65687;51.308;16.916;2023-02-15T15:37:56;100772.23;;;6.04;64.82
76753;BME280;65687;51.308;16.916;2023-02-15T15:48:38;100763.73;;;5.60;66.01
76753;BME280;65687;51.308;16.916;2023-02-15T15:53:44;100764.20;;;5.44;66.60
76753;BME280;65687;51.308;16.916;2023-02-15T15:58:57;100758.30;;;5.29;67.14
76753;BME280;65687;51.308;16.916;2023-02-15T16:03:59;100754.70;;;5.06;68.03
76753;BME280;65687;51.308;16.916;2023-02-15T16:09:24;100752.19;;;4.75;68.97
76753;BME280;65687;51.308;16.916;2023-02-15T16:14:30;100748.95;;;4.49;69.60
76753;BME280;65687;51.308;16.916;2023-02-15T16:19:35;100747.80;;;4.26;70.04
76753;BME280;65687;51.308;16.916;2023-02-15T16:25:39;100751.92;;;3.99;70.75
76753;BME280;65687;51.308;16.916;2023-02-15T16:30:22;100751.55;;;3.75;71.32
76753;BME280;65687;51.308;16.916;2023-02-15T16:35:25;100754.27;;;3.50;71.79
76753;BME280;65687;51.308;16.916;2023-02-15T16:40:38;100751.31;;;3.33;72.40
76753;BME280;65687;51.308;16.916;2023-02-15T16:45:42;100751.83;;;3.21;72.61
76753;BME280;65687;51.308;16.916;2023-02-15T16:50:48;100755.02;;;3.04;72.60
76753;BME280;65687;51.308;16.916;2023-02-15T16:55:57;100750.29;;;2.89;73.13
76753;BME280;65687;51.308;16.916;2023-02-15T17:01:01;100743.61;;;2.72;73.65
76753;BME280;65687;51.308;16.916;2023-02-15T17:06:19;100740.41;;;2.64;73.80
76753;BME280;65687;51.308;16.916;2023-02-15T17:11:32;100732.41;;;2.58;74.08
76753;BME280;65687;51.308;16.916;2023-02-15T17:16:58;100725.80;;;2.47;74.49
76753;BME280;65687;51.308;16.916;2023-02-15T17:22:05;100720.71;;;2.46;74.85
76753;BME280;65687;51.308;16.916;2023-02-15T17:27:19;100720.71;;;2.55;74.97
76753;BME280;65687;51.308;16.916;2023-02-15T17:32:24;100720.48;;;2.53;74.72
76753;BME280;65687;51.308;16.916;2023-02-15T17:37:30;100710.02;;;2.40;74.86
76753;BME280;65687;51.308;16.916;2023-02-15T17:42:32;100702.34;;;2.38;75.22
76753;BME280;65687;51.308;16.916;2023-02-15T17:47:34;100698.24;;;2.28;75.17
76753;BME280;65687;51.308;16.916;2023-02-15T17:52:35;100696.48;;;2.23;75.74
76753;BME280;65687;51.308;16.916;2023-02-15T17:57:37;100695.64;;;2.14;75.63
76753;BME280;65687;51.308;16.916;2023-02-15T18:02:39;100691.19;;;2.08;76.03
76753;BME280;65687;51.308;16.916;2023-02-15T18:07:59;100687.80;;;2.10;76.09
76753;BME280;65687;51.308;16.916;2023-02-15T18:13:20;100684.63;;;2.08;76.14
76753;BME280;65687;51.308;16.916;2023-02-15T18:18:22;100684.83;;;1.98;76.42
76753;BME280;65687;51.308;16.916;2023-02-15T18:23:24;100690.86;;;1.87;76.44
76753;BME280;65687;51.308;16.916;2023-02-15T18:28:26;100684.45;;;1.78;77.13
76753;BME280;65687;51.308;16.916;2023-02-15T18:33:37;100684.01;;;1.80;77.65
76753;BME280;65687;51.308;16.916;2023-02-15T18:38:39;100679.93;;;1.99;78.53
76753;BME280;65687;51.308;16.916;2023-02-15T18:43:41;100672.52;;;2.29;78.36
76753;BME280;65687;51.308;16.916;2023-02-15T18:48:43;100670.63;;;2.47;77.85
76753;BME280;65687;51.308;16.916;2023-02-15T18:53:48;100665.84;;;2.49;77.72
76753;BME280;65687;51.308;16.916;2023-02-15T18:58:50;100664.58;;;2.48;77.66
76753;BME280;65687;51.308;16.916;2023-02-15T19:03:52;100662.06;;;2.43;77.82
76753;BME280;65687;51.308;16.916;2023-02-15T19:08:54;100658.00;;;2.43;77.94
76753;BME280;65687;51.308;16.916;2023-02-15T19:13:55;100656.80;;;2.50;77.81
76753;BME280;65687;51.308;16.916;2023-02-15T19:18:57;100658.41;;;2.55;77.60
76753;BME280;65687;51.308;16.916;2023-02-15T19:24:02;100652.41;;;2.57;77.63
76753;BME280;65687;51.308;16.916;2023-02-15T19:29:05;100642.63;;;2.54;77.64
76753;BME280;65687;51.308;16.916;2023-02-15T19:34:14;100638.23;;;2.49;77.58
76753;BME280;65687;51.308;16.916;2023-02-15T19:44:23;100636.88;;;2.29;77.64
76753;BME280;65687;51.308;16.916;2023-02-15T19:49:25;100630.99;;;2.28;77.68
76753;BME280;65687;51.308;16.916;2023-02-15T19:54:28;100621.56;;;2.28;77.53
76753;BME280;65687;51.308;16.916;2023-02-15T19:59:32;100621.63;;;2.20;77.29
76753;BME280;65687;51.308;16.916;2023-02-15T20:04:34;100617.94;;;2.12;77.79
76753;BME280;65687;51.308;16.916;2023-02-15T20:09:36;100621.17;;;2.04;77.78
76753;BME280;65687;51.308;16.916;2023-02-15T20:14:41;100622.13;;;1.93;77.89
76753;BME280;65687;51.308;16.916;2023-02-15T20:19:43;100617.92;;;1.80;77.82
76753;BME280;65687;51.308;16.916;2023-02-15T20:24:46;100612.30;;;1.70;78.06
76753;BME280;65687;51.308;16.916;2023-02-15T20:29:48;100615.54;;;1.66;78.31
76753;BME280;65687;51.308;16.916;2023-02-15T20:34:50;100612.42;;;1.67;78.23
76753;BME280;65687;51.308;16.916;2023-02-15T20:39:52;100613.02;;;1.56;78.18
76753;BME280;65687;51.308;16.916;2023-02-15T20:44:53;100623.23;;;1.43;78.17
76753;BME280;65687;51.308;16.916;2023-02-15T20:49:55;100619.30;;;1.38;78.44
76753;BME280;65687;51.308;16.916;2023-02-15T20:54:57;100615.30;;;1.28;78.84
76753;BME280;65687;51.308;16.916;2023-02-15T20:59:59;100608.19;;;1.16;79.16
76753;BME280;65687;51.308;16.916;2023-02-15T21:05:00;100606.22;;;1.03;79.61
76753;BME280;65687;51.308;16.916;2023-02-15T21:10:02;100602.45;;;1.02;79.58
76753;BME280;65687;51.308;16.916;2023-02-15T21:15:34;100600.73;;;1.09;79.48
76753;BME280;65687;51.308;16.916;2023-02-15T21:20:35;100592.84;;;1.07;79.32
76753;BME280;65687;51.308;16.916;2023-02-15T21:25:39;100595.84;;;1.02;79.32
76753;BME280;65687;51.308;16.916;2023-02-15T21:30:41;100594.30;;;0.98;79.06
76753;BME280;65687;51.308;16.916;2023-02-15T21:35:45;100593.56;;;0.90;78.92
76753;BME280;65687;51.308;16.916;2023-02-15T21:40:48;100586.87;;;0.89;79.05
76753;BME280;65687;51.308;16.916;2023-02-15T21:45:50;100585.63;;;0.90;79.12
76753;BME280;65687;51.308;16.916;2023-02-15T21:51:10;100585.08;;;0.85;78.66
76753;BME280;65687;51.308;16.916;2023-02-15T21:56:30;100578.60;;;0.79;78.99
76753;BME280;65687;51.308;16.916;2023-02-15T22:01:31;100568.56;;;0.71;79.15
76753;BME280;65687;51.308;16.916;2023-02-15T22:06:33;100562.67;;;0.62;79.08
76753;BME280;65687;51.308;16.916;2023-02-15T22:11:34;100564.38;;;0.55;79.09
76753;BME280;65687;51.308;16.916;2023-02-15T22:16:36;100556.16;;;0.53;79.20
76753;BME280;65687;51.308;16.916;2023-02-15T22:21:37;100552.88;;;0.57;78.68
76753;BME280;65687;51.308;16.916;2023-02-15T22:26:39;100545.20;;;0.47;78.92
76753;BME280;65687;51.308;16.916;2023-02-15T22:31:41;100540.14;;;0.29;79.27
76753;BME280;65687;51.308;16.916;2023-02-15T22:36:42;100537.39;;;0.20;79.54
76753;BME280;65687;51.308;16.916;2023-02-15T22:41:44;100534.88;;;0.11;79.65
76753;BME280;65687;51.308;16.916;2023-02-15T22:46:45;100533.10;;;0.00;79.75
76753;BME280;65687;51.308;16.916;2023-02-15T22:51:50;100542.12;;;-0.06;79.84
76753;BME280;65687;51.308;16.916;2023-02-15T22:56:52;100541.62;;;-0.06;79.82
76753;BME280;65687;51.308;16.916;2023-02-15T23:01:57;100544.52;;;-0.12;79.93
76753;BME280;65687;51.308;16.916;2023-02-15T23:06:58;100541.73;;;-0.17;80.22
76753;BME280;65687;51.308;16.916;2023-02-15T23:12:01;100544.60;;;-0.23;80.36
76753;BME280;65687;51.308;16.916;2023-02-15T23:17:02;100546.69;;;-0.32;80.65
76753;BME280;65687;51.308;16.916;2023-02-15T23:22:04;100542.98;;;-0.37;80.74
76753;BME280;65687;51.308;16.916;2023-02-15T23:27:06;100544.83;;;-0.41;80.40
76753;BME280;65687;51.308;16.916;2023-02-15T23:32:26;100547.53;;;-0.39;80.28
76753;BME280;65687;51.308;16.916;2023-02-15T23:37:28;100541.29;;;-0.32;80.25
76753;BME280;65687;51.308;16.916;2023-02-15T23:42:30;100540.13;;;-0.26;80.30
76753;BME280;65687;51.308;16.916;2023-02-15T23:47:34;100543.70;;;-0.31;80.05
76753;BME280;65687;51.308;16.916;2023-02-15T23:52:56;100542.80;;;-0.37;80.05
76753;BME280;65687;51.308;16.916;2023-02-15T23:57:57;100548.83;;;-0.47;79.83
